createdAt,value
2018-05-24T03:01:04.550Z,5.00
2018-05-24T03:02:04.766Z,5.80
2018-05-24T03:03:04.991Z,5.40
2018-05-24T03:04:04.936Z,5.60
2018-05-24T03:05:05.152Z,5.50
2018-05-24T03:06:05.316Z,5.80
2018-05-24T03:07:05.452Z,5.60
2018-05-24T03:08:05.621Z,5.30
2018-05-24T03:09:05.751Z,5.10
2018-05-24T03:10:06.098Z,5.50
2018-05-24T03:11:06.125Z,5.80
2018-05-24T03:12:06.338Z,5.70
2018-05-24T03:13:06.465Z,5.80
2018-05-24T03:14:06.656Z,5.70
2018-05-24T03:15:06.780Z,6.00
2018-05-24T03:16:06.966Z,5.60
2018-05-24T03:17:07.119Z,5.60
2018-05-24T03:18:07.299Z,5.70
2018-05-24T03:19:07.414Z,5.70
2018-05-24T03:20:07.653Z,5.70
2018-05-24T03:21:07.755Z,5.90
2018-05-24T03:22:07.954Z,5.80
2018-05-24T03:23:08.198Z,5.40
2018-05-24T03:24:08.374Z,5.50
2018-05-24T03:25:08.458Z,5.60
2018-05-24T03:26:08.681Z,5.80
2018-05-24T03:27:08.823Z,5.90
2018-05-24T03:28:08.952Z,5.70
2018-05-24T03:29:09.121Z,5.60
2018-05-24T03:30:09.351Z,5.70
2018-05-24T03:31:09.523Z,6.00
2018-05-24T03:32:09.640Z,5.90
2018-05-24T03:33:09.845Z,5.80
2018-05-24T03:34:09.977Z,6.10
2018-05-24T03:35:10.138Z,5.70
2018-05-24T03:36:10.297Z,5.90
2018-05-24T03:37:10.430Z,5.90
2018-05-24T03:38:10.603Z,5.60
2018-05-24T03:39:10.795Z,5.60
2018-05-24T03:40:10.987Z,5.50
2018-05-24T03:41:11.206Z,5.70
2018-05-24T03:42:11.365Z,5.60
2018-05-24T03:43:11.512Z,5.90
2018-05-24T03:44:11.674Z,6.10
2018-05-24T03:45:11.966Z,6.10
2018-05-24T03:46:12.011Z,5.50
2018-05-24T03:47:12.230Z,5.70
2018-05-24T03:48:12.346Z,6.00
2018-05-24T03:49:12.611Z,5.50
2018-05-24T03:50:12.696Z,5.70
2018-05-24T03:51:12.900Z,5.50
2018-05-24T03:52:13.054Z,5.70
2018-05-24T03:53:13.192Z,5.70
2018-05-24T03:54:13.388Z,5.60
2018-05-24T03:55:13.631Z,5.60
2018-05-24T03:56:13.777Z,5.70
2018-05-24T03:57:13.906Z,5.70
2018-05-24T03:58:14.060Z,5.60
2018-05-24T03:59:14.261Z,5.90
2018-05-24T04:00:14.420Z,5.70
2018-05-24T04:01:14.573Z,5.60
2018-05-24T04:02:14.736Z,5.00
2018-05-24T04:03:14.914Z,5.90
2018-05-24T04:04:15.166Z,5.10
2018-05-24T04:05:15.292Z,5.50
2018-05-24T04:06:15.479Z,5.40
2018-05-24T04:07:15.757Z,5.20
2018-05-24T04:08:15.830Z,5.40
2018-05-24T04:09:15.939Z,5.40
2018-05-24T04:10:16.126Z,5.30
2018-05-24T04:11:16.306Z,5.50
2018-05-24T04:12:16.485Z,5.60
2018-05-24T04:13:16.582Z,5.30
2018-05-24T04:14:16.707Z,5.10
2018-05-24T04:15:16.937Z,5.90
2018-05-24T04:16:17.093Z,5.10
2018-05-24T04:17:17.283Z,5.60
2018-05-24T04:18:17.448Z,5.00
2018-05-24T04:19:17.563Z,4.90
2018-05-24T04:20:17.763Z,5.30
2018-05-24T04:21:17.986Z,5.20
2018-05-24T04:22:18.066Z,5.30
2018-05-24T04:23:18.302Z,5.20
2018-05-24T04:24:18.488Z,5.30
2018-05-24T04:25:18.615Z,5.00
2018-05-24T04:26:18.788Z,5.00
2018-05-24T04:27:19.010Z,5.30
2018-05-24T04:28:19.045Z,5.30
2018-05-24T04:29:19.172Z,5.10
2018-05-24T04:30:19.341Z,4.80
2018-05-24T04:31:19.576Z,5.00
2018-05-24T04:32:19.698Z,5.30
2018-05-24T04:33:19.825Z,5.40
2018-05-24T04:34:20.037Z,5.00
2018-05-24T04:35:20.172Z,5.60
2018-05-24T04:36:20.410Z,5.20
2018-05-24T04:37:20.617Z,5.10
2018-05-24T04:38:20.646Z,5.40
2018-05-24T04:39:20.789Z,5.60
2018-05-24T04:40:20.983Z,5.70
2018-05-24T04:41:21.152Z,5.10
2018-05-24T04:42:21.313Z,5.10
2018-05-24T04:43:21.544Z,5.20
2018-05-24T04:44:21.661Z,5.10
2018-05-24T04:45:21.830Z,5.30
2018-05-24T04:46:21.986Z,5.40
2018-05-24T04:47:22.225Z,5.10
2018-05-24T04:48:22.428Z,4.80
2018-05-24T04:49:22.578Z,5.50
2018-05-24T04:50:22.676Z,5.10
2018-05-24T04:51:22.855Z,5.30
2018-05-24T04:52:23.088Z,5.20
2018-05-24T04:53:23.259Z,4.90
2018-05-24T04:54:23.468Z,5.50
2018-05-24T04:55:23.535Z,5.10
2018-05-24T04:56:23.769Z,5.60
2018-05-24T04:57:23.938Z,5.20
2018-05-24T04:58:24.109Z,5.00
2018-05-24T04:59:24.246Z,5.00
2018-05-24T05:00:24.373Z,5.90
2018-05-24T05:01:24.547Z,5.20
2018-05-24T05:02:24.781Z,5.60
2018-05-24T05:03:24.992Z,5.50
2018-05-24T05:04:25.133Z,5.20
2018-05-24T05:05:25.351Z,5.40
2018-05-24T05:06:25.522Z,5.60
2018-05-24T05:07:25.653Z,5.40
2018-05-24T05:08:25.915Z,5.60
2018-05-24T05:09:25.949Z,5.50
2018-05-24T05:10:26.165Z,5.50
2018-05-24T05:11:26.310Z,5.30
2018-05-24T05:12:26.426Z,5.60
2018-05-24T05:13:26.746Z,5.00
2018-05-24T05:14:26.772Z,5.20
2018-05-24T05:15:27.024Z,5.30
2018-05-24T05:16:27.154Z,5.20
2018-05-24T05:17:27.315Z,5.40
2018-05-24T05:18:27.460Z,5.80
2018-05-24T05:19:27.712Z,5.40
2018-05-24T05:20:27.866Z,5.60
2018-05-24T05:21:28.047Z,5.50
2018-05-24T05:22:28.200Z,5.20
2018-05-24T05:23:28.416Z,5.20
2018-05-24T05:24:28.630Z,5.50
2018-05-24T05:25:28.746Z,5.50
2018-05-24T05:26:28.861Z,5.60
2018-05-24T05:27:29.072Z,5.90
2018-05-24T05:28:29.260Z,6.20
2018-05-24T05:29:29.378Z,5.70
2018-05-24T05:30:29.623Z,5.70
2018-05-24T05:31:29.772Z,5.60
2018-05-24T05:32:29.940Z,6.00
2018-05-24T05:33:30.097Z,6.00
2018-05-24T05:34:30.339Z,5.70
2018-05-24T05:35:30.427Z,5.70
2018-05-24T05:36:30.634Z,6.10
2018-05-24T05:37:30.778Z,5.70
2018-05-24T05:38:30.887Z,6.20
2018-05-24T05:39:31.174Z,6.40
2018-05-24T05:40:31.327Z,6.10
2018-05-24T05:41:31.506Z,5.60
2018-05-24T05:42:31.715Z,6.50
2018-05-24T05:43:31.835Z,5.90
2018-05-24T05:44:32.033Z,6.30
2018-05-24T05:45:32.167Z,6.80
2018-05-24T05:46:32.389Z,6.10
2018-05-24T05:47:32.475Z,6.10
2018-05-24T05:48:32.670Z,6.10
2018-05-24T05:49:32.855Z,6.20
2018-05-24T05:50:32.997Z,6.20
2018-05-24T05:51:33.193Z,6.10
2018-05-24T05:52:33.389Z,6.10
2018-05-24T05:53:33.559Z,6.30
2018-05-24T05:54:33.719Z,6.10
2018-05-24T05:55:33.891Z,5.70
2018-05-24T05:56:34.033Z,6.20
2018-05-24T05:57:35.144Z,6.30
2018-05-24T05:58:34.371Z,6.30
2018-05-24T05:59:34.489Z,6.50
2018-05-24T06:00:34.735Z,6.40
2018-05-24T06:01:34.876Z,5.90
2018-05-24T06:02:35.000Z,6.20
2018-05-24T06:03:35.174Z,6.10
2018-05-24T06:04:35.444Z,5.90
2018-05-24T06:05:35.541Z,6.00
2018-05-24T06:06:35.783Z,6.30
2018-05-24T06:07:35.903Z,6.00
2018-05-24T06:08:36.022Z,6.40
2018-05-24T06:09:36.260Z,6.60
2018-05-24T06:10:36.395Z,6.30
2018-05-24T06:11:36.598Z,6.00
2018-05-24T06:12:36.838Z,6.00
2018-05-24T06:13:36.955Z,6.00
2018-05-24T06:14:37.075Z,6.30
2018-05-24T06:15:37.287Z,5.70
2018-05-24T06:16:37.430Z,6.30
2018-05-24T06:17:37.586Z,6.30
2018-05-24T06:18:37.758Z,6.50
2018-05-24T06:19:37.960Z,6.20
2018-05-24T06:20:38.154Z,6.70
2018-05-24T06:21:38.245Z,6.60
2018-05-24T06:22:38.442Z,6.40
2018-05-24T06:23:38.634Z,6.70
2018-05-24T06:24:38.782Z,6.30
2018-05-24T06:25:38.897Z,6.10
2018-05-24T06:26:39.133Z,6.30
2018-05-24T06:27:39.295Z,6.50
2018-05-24T06:28:39.525Z,6.60
2018-05-24T06:29:39.623Z,6.20
2018-05-24T06:30:39.749Z,6.70
2018-05-24T06:31:39.954Z,6.90
2018-05-24T06:32:40.095Z,6.40
2018-05-24T06:33:40.300Z,6.40
2018-05-24T06:34:40.487Z,6.60
2018-05-24T06:35:40.603Z,6.80
2018-05-24T06:36:40.782Z,6.50
2018-05-24T06:37:40.962Z,6.60
2018-05-24T06:38:41.142Z,6.60
2018-05-24T06:39:41.314Z,6.30
2018-05-24T06:40:41.492Z,6.50
2018-05-24T06:41:41.648Z,6.40
2018-05-24T06:42:41.820Z,6.70
2018-05-24T06:43:41.928Z,6.80
2018-05-24T06:44:42.162Z,6.70
2018-05-24T06:45:42.323Z,6.40
2018-05-24T06:46:42.454Z,6.80
2018-05-24T06:47:42.699Z,6.60
2018-05-24T06:48:42.884Z,6.80
2018-05-24T06:49:42.967Z,6.60
2018-05-24T06:50:43.215Z,6.70
2018-05-24T06:51:43.346Z,6.60
2018-05-24T06:52:43.485Z,6.60
2018-05-24T06:53:43.765Z,6.80
2018-05-24T06:54:43.855Z,7.00
2018-05-24T06:55:44.008Z,6.70
2018-05-24T06:56:44.128Z,6.90
2018-05-24T06:57:44.373Z,6.60
2018-05-24T06:58:44.479Z,6.80
2018-05-24T06:59:44.672Z,6.70
2018-05-24T07:00:44.799Z,7.10
2018-05-24T07:01:44.928Z,7.10
2018-05-24T07:02:45.157Z,6.70
2018-05-24T07:03:45.259Z,7.00
2018-05-24T07:04:45.488Z,6.80
2018-05-24T07:05:45.683Z,7.10
2018-05-24T07:06:45.792Z,6.80
2018-05-24T07:07:46.033Z,6.80
2018-05-24T07:08:46.192Z,6.40
2018-05-24T07:09:46.399Z,7.10
2018-05-24T07:10:46.472Z,6.90
2018-05-24T07:11:46.739Z,6.90
2018-05-24T07:12:46.859Z,6.60
2018-05-24T07:13:46.997Z,7.00
2018-05-24T07:14:47.181Z,7.50
2018-05-24T07:15:47.283Z,7.10
2018-05-24T07:16:47.478Z,7.10
2018-05-24T07:17:47.676Z,7.00
2018-05-24T07:18:47.831Z,7.20
2018-05-24T07:19:47.994Z,6.90
2018-05-24T07:20:48.221Z,7.30
2018-05-24T07:21:48.284Z,7.20
2018-05-24T07:22:48.463Z,7.20
2018-05-24T07:23:48.690Z,7.10
2018-05-24T07:24:48.859Z,6.90
2018-05-24T07:25:48.999Z,7.10
2018-05-24T07:26:49.285Z,7.10
2018-05-24T07:27:49.391Z,6.50
2018-05-24T07:28:49.498Z,6.60
2018-05-24T07:29:49.649Z,6.90
2018-05-24T07:30:49.827Z,6.60
2018-05-24T07:31:50.039Z,7.00
2018-05-24T07:32:50.178Z,6.60
2018-05-24T07:33:50.308Z,6.70
2018-05-24T07:34:50.524Z,7.10
2018-05-24T07:35:50.677Z,6.70
2018-05-24T07:36:50.802Z,6.90
2018-05-24T07:37:51.026Z,6.80
2018-05-24T07:38:51.195Z,6.70
2018-05-24T07:39:51.346Z,6.80
2018-05-24T07:40:51.464Z,6.80
2018-05-24T07:41:51.637Z,6.70
2018-05-24T07:42:51.782Z,6.60
2018-05-24T07:43:52.037Z,6.90
2018-05-24T07:44:52.083Z,6.70
2018-05-24T07:45:52.287Z,6.70
2018-05-24T07:46:52.471Z,6.70
2018-05-24T07:47:52.618Z,6.90
2018-05-24T07:48:52.770Z,6.90
2018-05-24T07:49:52.953Z,6.10
2018-05-24T07:50:53.092Z,6.80
2018-05-24T07:51:53.297Z,6.80
2018-05-24T07:52:53.498Z,6.50
2018-05-24T07:53:53.676Z,7.00
2018-05-24T07:54:54.009Z,6.90
2018-05-24T07:55:54.037Z,7.20
2018-05-24T07:56:54.130Z,6.60
2018-05-24T07:57:54.326Z,7.20
2018-05-24T07:58:54.444Z,6.80
2018-05-24T07:59:54.655Z,6.90
2018-05-24T08:00:54.765Z,6.60
2018-05-24T08:01:55.036Z,7.00
2018-05-24T08:02:55.103Z,6.80
2018-05-24T08:03:55.312Z,7.00
2018-05-24T08:04:55.463Z,6.80
2018-05-24T08:05:55.628Z,7.00
2018-05-24T08:06:55.861Z,6.70
2018-05-24T08:07:56.091Z,7.00
2018-05-24T08:08:56.259Z,7.60
2018-05-24T08:09:56.432Z,6.90
2018-05-24T08:10:56.611Z,6.70
2018-05-24T08:11:56.713Z,7.00
2018-05-24T08:12:56.979Z,7.50
2018-05-24T08:13:57.068Z,7.70
2018-05-24T08:14:57.286Z,7.40
2018-05-24T08:15:57.447Z,7.20
2018-05-24T08:16:57.633Z,7.70
2018-05-24T08:17:57.857Z,7.10
2018-05-24T08:18:58.020Z,7.70
2018-05-24T08:19:58.198Z,7.20
2018-05-24T08:20:58.331Z,7.40
2018-05-24T08:21:58.536Z,7.20
2018-05-24T08:22:58.677Z,7.50
2018-05-24T08:23:58.876Z,7.60
2018-05-24T08:24:58.953Z,7.50
2018-05-24T08:25:59.191Z,7.40
2018-05-24T08:26:59.354Z,7.40
2018-05-24T08:27:59.525Z,7.20
2018-05-24T08:28:59.749Z,7.20
2018-05-24T08:29:59.803Z,7.20
2018-05-24T08:31:00.019Z,7.60
2018-05-24T08:32:00.323Z,7.20
2018-05-24T08:33:00.470Z,8.00
2018-05-24T08:34:00.547Z,8.00
2018-05-24T08:35:00.851Z,8.40
2018-05-24T08:36:00.920Z,8.00
2018-05-24T08:37:01.126Z,8.00
2018-05-24T08:38:01.814Z,8.10
2018-05-24T08:39:01.444Z,8.00
2018-05-24T08:40:01.569Z,7.80
2018-05-24T08:41:01.860Z,8.00
2018-05-24T08:42:01.928Z,8.30
2018-05-24T08:43:02.098Z,7.80
2018-05-24T08:44:02.254Z,8.20
2018-05-24T08:45:02.446Z,8.00
2018-05-24T08:46:02.657Z,7.90
2018-05-24T08:47:02.868Z,7.90
2018-05-24T08:48:03.032Z,7.70
2018-05-24T08:49:03.160Z,8.20
2018-05-24T08:50:03.339Z,8.50
2018-05-24T08:51:03.494Z,8.30
2018-05-24T08:52:03.683Z,8.60
2018-05-24T08:53:03.838Z,8.20
2018-05-24T08:54:04.056Z,8.80
2018-05-24T08:55:04.249Z,8.20
2018-05-24T08:56:04.345Z,7.70
2018-05-24T08:57:04.685Z,7.70
2018-05-24T08:58:04.733Z,8.40
2018-05-24T08:59:04.866Z,8.60
2018-05-24T09:00:05.137Z,8.40
2018-05-24T09:01:05.221Z,8.50
2018-05-24T09:02:05.465Z,8.50
2018-05-24T09:03:05.593Z,8.30
2018-05-24T09:04:05.806Z,8.20
2018-05-24T09:05:05.969Z,8.40
2018-05-24T09:06:06.158Z,8.30
2018-05-24T09:07:06.293Z,8.20
2018-05-24T09:08:06.475Z,8.20
2018-05-24T09:09:06.752Z,8.30
2018-05-24T09:10:06.810Z,8.20
2018-05-24T09:11:06.950Z,8.70
2018-05-24T09:12:07.085Z,8.30
2018-05-24T09:13:07.326Z,8.30
2018-05-24T09:14:07.407Z,9.10
2018-05-24T09:15:07.573Z,8.40
2018-05-24T09:16:07.817Z,8.50
2018-05-24T09:17:08.063Z,8.40
2018-05-24T09:18:08.103Z,8.10
2018-05-24T09:19:08.294Z,8.30
2018-05-24T09:20:08.421Z,9.20
2018-05-24T09:21:08.559Z,8.50
2018-05-24T09:22:08.845Z,8.20
2018-05-24T09:23:08.959Z,8.90
2018-05-24T09:24:09.062Z,8.40
2018-05-24T09:25:09.213Z,8.30
2018-05-24T09:26:09.373Z,8.10
2018-05-24T09:27:09.573Z,8.70
2018-05-24T09:28:09.679Z,8.60
2018-05-24T09:29:09.887Z,8.70
2018-05-24T09:30:10.023Z,9.20
2018-05-24T09:31:10.238Z,8.90
2018-05-24T09:32:10.395Z,9.50
2018-05-24T09:33:10.536Z,9.10
2018-05-24T09:34:10.803Z,8.50
2018-05-24T09:35:10.931Z,8.40
2018-05-24T09:36:11.184Z,8.90
2018-05-24T09:37:11.237Z,9.00
2018-05-24T09:38:11.402Z,8.60
2018-05-24T09:39:11.652Z,9.00
2018-05-24T09:40:11.731Z,8.90
2018-05-24T09:41:11.888Z,9.00
2018-05-24T09:42:12.024Z,8.90
2018-05-24T09:43:12.235Z,9.50
2018-05-24T09:44:12.366Z,9.20
2018-05-24T09:45:12.641Z,8.70
2018-05-24T09:46:12.771Z,8.90
2018-05-24T09:47:12.866Z,9.00
2018-05-24T09:48:13.057Z,8.90
2018-05-24T09:49:13.278Z,9.00
2018-05-24T09:50:13.428Z,8.30
2018-05-24T09:51:13.567Z,8.50
2018-05-24T09:52:13.728Z,7.90
2018-05-24T09:53:13.905Z,8.30
2018-05-24T09:54:14.111Z,7.90
2018-05-24T09:55:14.295Z,8.30
2018-05-24T09:56:14.488Z,7.50
2018-05-24T09:57:14.615Z,8.10
2018-05-24T09:58:14.804Z,8.00
2018-05-24T09:59:14.897Z,7.40
2018-05-24T10:00:15.166Z,6.90
2018-05-24T10:01:15.286Z,7.50
2018-05-24T10:02:15.411Z,6.90
2018-05-24T10:03:15.594Z,7.50
2018-05-24T10:04:15.747Z,7.80
2018-05-24T10:05:16.003Z,8.50
2018-05-24T10:06:16.104Z,7.90
2018-05-24T10:07:16.324Z,7.60
2018-05-24T10:08:16.475Z,7.20
2018-05-24T10:09:16.688Z,7.00
2018-05-24T10:10:16.820Z,7.10
2018-05-24T10:11:17.089Z,7.30
2018-05-24T10:12:17.150Z,6.90
2018-05-24T10:13:17.311Z,6.90
2018-05-24T10:14:17.532Z,6.70
2018-05-24T10:15:17.661Z,7.10
2018-05-24T10:16:17.914Z,6.60
2018-05-24T10:17:18.012Z,6.80
2018-05-24T10:18:18.188Z,6.10
2018-05-24T10:19:18.398Z,5.80
2018-05-24T10:20:18.513Z,6.40
2018-05-24T10:21:18.667Z,5.90
2018-05-24T10:22:18.855Z,6.10
2018-05-24T10:23:19.009Z,5.90
2018-05-24T10:24:19.227Z,6.00
2018-05-24T10:25:19.376Z,6.40
2018-05-24T10:26:19.543Z,7.00
2018-05-24T10:27:19.751Z,7.10
2018-05-24T10:28:19.924Z,6.70
2018-05-24T10:29:20.189Z,7.30
2018-05-24T10:30:20.363Z,7.40
2018-05-24T10:31:20.418Z,7.60
2018-05-24T10:32:20.686Z,7.90
2018-05-24T10:33:20.752Z,7.60
2018-05-24T10:34:21.035Z,7.20
2018-05-24T10:35:21.103Z,7.80
2018-05-24T10:36:21.344Z,7.50
2018-05-24T10:37:21.412Z,7.80
2018-05-24T10:38:21.695Z,8.00
2018-05-24T10:39:21.747Z,7.90
2018-05-24T10:40:21.933Z,8.60
2018-05-24T10:41:22.158Z,8.40
2018-05-24T10:42:22.333Z,9.30
2018-05-24T10:43:22.484Z,9.40
2018-05-24T10:44:22.637Z,10.10
2018-05-24T10:45:22.780Z,10.00
2018-05-24T10:46:22.967Z,9.90
2018-05-24T10:47:23.128Z,12.10
2018-05-24T10:48:23.286Z,12.50
2018-05-24T10:49:23.411Z,12.80
2018-05-24T10:50:23.601Z,12.70
2018-05-24T10:51:23.769Z,13.10
2018-05-24T10:52:23.887Z,13.60
2018-05-24T10:53:24.067Z,13.40
2018-05-24T10:54:24.275Z,13.40
2018-05-24T10:55:24.482Z,13.40
2018-05-24T10:56:24.664Z,13.20
2018-05-24T10:57:24.826Z,14.70
2018-05-24T10:58:25.037Z,14.30
2018-05-24T10:59:25.096Z,14.60
2018-05-24T11:00:25.359Z,13.40
2018-05-24T11:01:25.510Z,14.20
2018-05-24T11:02:25.641Z,14.20
2018-05-24T11:03:25.773Z,14.50
2018-05-24T11:04:25.980Z,14.70
2018-05-24T11:05:26.179Z,14.10
2018-05-24T11:06:26.409Z,14.60
2018-05-24T11:07:26.440Z,15.70
2018-05-24T11:08:26.651Z,15.80
2018-05-24T11:09:26.803Z,15.70
2018-05-24T11:10:26.953Z,16.30
2018-05-24T11:11:27.190Z,15.30
2018-05-24T11:12:27.357Z,15.90
2018-05-24T11:13:27.560Z,16.80
2018-05-24T11:14:27.679Z,16.10
2018-05-24T11:15:27.857Z,16.90
2018-05-24T11:16:28.069Z,16.80
2018-05-24T11:17:28.221Z,17.20
2018-05-24T11:18:28.331Z,18.00
2018-05-24T11:19:28.629Z,16.90
2018-05-24T11:20:28.766Z,17.70
2018-05-24T11:21:28.917Z,17.30
2018-05-24T11:22:29.051Z,16.80
2018-05-24T11:23:29.283Z,16.20
2018-05-24T11:24:29.385Z,17.30
2018-05-24T11:25:29.572Z,17.10
2018-05-24T11:26:29.709Z,16.60
2018-05-24T11:27:29.905Z,17.90
2018-05-24T11:28:30.025Z,17.60
2018-05-24T11:29:30.257Z,17.00
2018-05-24T11:30:30.387Z,16.30
2018-05-24T11:31:30.534Z,17.10
2018-05-24T11:32:30.696Z,17.20
2018-05-24T11:33:30.811Z,16.20
2018-05-24T11:34:31.078Z,16.80
2018-05-24T11:35:31.188Z,16.00
2018-05-24T11:36:31.367Z,17.30
2018-05-24T11:37:31.554Z,16.90
2018-05-24T11:38:31.683Z,17.30
2018-05-24T11:39:31.807Z,17.30
2018-05-24T11:40:32.038Z,17.30
2018-05-24T11:41:32.193Z,17.90
2018-05-24T11:42:32.364Z,18.50
2018-05-24T11:43:32.628Z,18.90
2018-05-24T11:44:32.697Z,18.60
2018-05-24T11:45:32.903Z,19.00
2018-05-24T11:46:33.073Z,18.50
2018-05-24T11:47:33.218Z,19.40
2018-05-24T11:48:33.333Z,20.80
2018-05-24T11:49:33.548Z,20.10
2018-05-24T11:50:33.710Z,19.70
2018-05-24T11:51:33.809Z,20.70
2018-05-24T11:52:33.987Z,19.70
2018-05-24T11:53:34.173Z,20.30
2018-05-24T11:54:34.334Z,20.10
2018-05-24T11:55:34.535Z,20.20
2018-05-24T11:56:34.625Z,20.10
2018-05-24T11:57:34.862Z,21.20
2018-05-24T11:58:35.114Z,21.00
2018-05-24T11:59:35.226Z,20.70
2018-05-24T12:00:35.376Z,20.40
2018-05-24T12:01:35.556Z,19.80
2018-05-24T12:02:35.704Z,20.20
2018-05-24T12:03:35.875Z,21.00
2018-05-24T12:04:36.041Z,21.60
2018-05-24T12:05:36.176Z,21.30
2018-05-24T12:06:36.351Z,21.90
2018-05-24T12:07:36.504Z,21.00
2018-05-24T12:08:36.671Z,21.90
2018-05-24T12:09:36.853Z,21.30
2018-05-24T12:10:37.057Z,21.00
2018-05-24T12:11:37.240Z,21.60
2018-05-24T12:12:37.408Z,21.70
2018-05-24T12:13:37.570Z,21.90
2018-05-24T12:14:37.796Z,21.10
2018-05-24T12:15:38.856Z,23.30
2018-05-24T12:16:37.994Z,23.30
2018-05-24T12:17:38.145Z,22.00
2018-05-24T12:18:38.346Z,21.60
2018-05-24T12:19:38.513Z,21.50
2018-05-24T12:20:38.710Z,22.70
2018-05-24T12:21:38.845Z,22.40
2018-05-24T12:22:39.015Z,22.70
2018-05-24T12:23:39.148Z,21.50
2018-05-24T12:24:39.307Z,20.90
2018-05-24T12:25:39.491Z,21.00
2018-05-24T12:26:39.648Z,22.20
2018-05-24T12:27:39.849Z,22.70
2018-05-24T12:28:39.956Z,22.50
2018-05-24T12:29:40.167Z,23.50
2018-05-24T12:30:40.308Z,22.60
2018-05-24T12:31:40.487Z,23.40
2018-05-24T12:32:40.684Z,23.80
2018-05-24T12:33:40.813Z,23.90
2018-05-24T12:34:41.093Z,23.80
2018-05-24T12:35:41.238Z,23.50
2018-05-24T12:36:41.348Z,23.40
2018-05-24T12:37:41.591Z,24.40
2018-05-24T12:38:41.818Z,25.30
2018-05-24T12:39:41.960Z,25.00
2018-05-24T12:40:42.119Z,25.30
2018-05-24T12:41:42.235Z,25.20
2018-05-24T12:42:42.428Z,26.10
2018-05-24T12:43:42.580Z,26.70
2018-05-24T12:44:42.721Z,25.30
2018-05-24T12:45:43.013Z,25.40
2018-05-24T12:46:43.115Z,25.20
2018-05-24T12:47:43.316Z,25.20
2018-05-24T12:48:43.504Z,23.30
2018-05-24T12:49:43.601Z,25.20
2018-05-24T12:50:43.823Z,24.90
2018-05-24T12:51:43.973Z,24.50
2018-05-24T12:52:44.106Z,23.80
2018-05-24T12:53:44.297Z,24.40
2018-05-24T12:54:44.551Z,23.90
2018-05-24T12:55:44.623Z,24.80
2018-05-24T12:56:44.872Z,22.50
2018-05-24T12:57:45.006Z,23.60
2018-05-24T12:58:45.173Z,24.50
2018-05-24T12:59:45.319Z,24.60
2018-05-24T13:00:45.508Z,24.70
2018-05-24T13:01:45.626Z,23.70
2018-05-24T13:02:45.810Z,24.50
2018-05-24T13:03:46.055Z,24.50
2018-05-24T13:04:46.166Z,25.30
2018-05-24T13:05:46.258Z,24.70
2018-05-24T13:06:46.487Z,24.30
2018-05-24T13:07:46.678Z,23.90
2018-05-24T13:08:46.861Z,24.70
2018-05-24T13:09:47.019Z,24.70
2018-05-24T13:10:47.152Z,25.10
2018-05-24T13:11:47.316Z,25.20
2018-05-24T13:12:47.527Z,25.20
2018-05-24T13:13:47.726Z,24.20
2018-05-24T13:14:47.855Z,23.30
2018-05-24T13:15:47.969Z,24.60
2018-05-24T13:16:48.139Z,24.10
2018-05-24T13:17:48.332Z,25.30
2018-05-24T13:18:48.566Z,24.80
2018-05-24T13:19:48.700Z,25.10
2018-05-24T13:20:48.823Z,24.60
2018-05-24T13:21:49.001Z,24.50
2018-05-24T13:22:49.123Z,24.40
2018-05-24T13:23:49.360Z,24.60
2018-05-24T13:24:49.522Z,24.80
2018-05-24T13:25:49.637Z,25.20
2018-05-24T13:26:49.872Z,25.00
2018-05-24T13:27:49.973Z,25.20
2018-05-24T13:28:50.196Z,25.90
2018-05-24T13:29:50.282Z,25.40
2018-05-24T13:30:50.484Z,26.60
2018-05-24T13:31:50.653Z,25.70
2018-05-24T13:32:50.897Z,24.90
2018-05-24T13:33:51.046Z,26.10
2018-05-24T13:34:51.179Z,26.90
2018-05-24T13:35:51.330Z,27.30
2018-05-24T13:36:51.543Z,26.20
2018-05-24T13:37:51.676Z,26.50
2018-05-24T13:38:51.830Z,25.60
2018-05-24T13:39:52.012Z,26.80
2018-05-24T13:40:52.229Z,27.40
2018-05-24T13:41:52.387Z,26.90
2018-05-24T13:42:52.530Z,27.40
2018-05-24T13:43:52.716Z,27.10
2018-05-24T13:44:52.956Z,25.90
2018-05-24T13:45:53.090Z,25.10
2018-05-24T13:46:53.232Z,26.60
2018-05-24T13:47:53.386Z,26.30
2018-05-24T13:48:53.559Z,26.00
2018-05-24T13:49:53.705Z,25.10
2018-05-24T13:50:53.988Z,24.90
2018-05-24T13:51:54.101Z,24.10
2018-05-24T13:52:54.303Z,24.90
2018-05-24T13:53:54.428Z,24.50
2018-05-24T13:54:54.588Z,25.80
2018-05-24T13:55:54.778Z,24.70
2018-05-24T13:56:54.892Z,22.80
2018-05-24T13:57:55.156Z,24.40
2018-05-24T13:58:55.229Z,24.00
2018-05-24T13:59:55.511Z,24.70
2018-05-24T14:00:55.596Z,23.90
2018-05-24T14:01:55.820Z,23.80
2018-05-24T14:02:56.755Z,23.50
2018-05-24T14:03:56.213Z,23.50
2018-05-24T14:04:56.348Z,23.40
2018-05-24T14:05:56.612Z,23.30
2018-05-24T14:06:56.807Z,24.90
2018-05-24T14:07:56.906Z,25.70
2018-05-24T14:08:57.118Z,24.20
2018-05-24T14:09:57.214Z,24.30
2018-05-24T14:10:57.359Z,23.70
2018-05-24T14:11:57.557Z,25.10
2018-05-24T14:12:57.743Z,24.00
2018-05-24T14:13:57.840Z,24.50
2018-05-24T14:14:58.021Z,26.10
2018-05-24T14:15:58.229Z,26.70
2018-05-24T14:16:58.471Z,25.80
2018-05-24T14:17:58.590Z,25.60
2018-05-24T14:18:58.702Z,24.70
2018-05-24T14:19:58.909Z,25.90
2018-05-24T14:20:59.105Z,25.90
2018-05-24T14:21:59.217Z,24.50
2018-05-24T14:22:59.409Z,24.90
2018-05-24T14:23:59.551Z,25.80
2018-05-24T14:24:59.785Z,25.10
2018-05-24T14:25:59.882Z,27.20
2018-05-24T14:27:00.019Z,25.70
2018-05-24T14:28:00.179Z,25.60
2018-05-24T14:29:00.388Z,25.80
2018-05-24T14:30:00.561Z,26.10
2018-05-24T14:31:00.730Z,27.10
2018-05-24T14:32:00.909Z,25.20
2018-05-24T14:33:01.043Z,27.00
2018-05-24T14:34:01.255Z,26.20
2018-05-24T14:35:01.370Z,25.20
2018-05-24T14:36:01.505Z,24.70
2018-05-24T14:37:01.760Z,25.10
2018-05-24T14:38:01.896Z,24.90
2018-05-24T14:39:02.025Z,24.10
2018-05-24T14:40:02.171Z,24.50
2018-05-24T14:41:02.328Z,25.40
2018-05-24T14:42:02.541Z,23.00
2018-05-24T14:43:02.725Z,24.60
2018-05-24T14:44:02.861Z,23.90
2018-05-24T14:45:03.054Z,23.90
2018-05-24T14:46:03.190Z,23.30
2018-05-24T14:47:03.383Z,23.70
2018-05-24T14:48:03.519Z,24.50
2018-05-24T14:49:03.697Z,22.80
2018-05-24T14:50:03.888Z,23.50
2018-05-24T14:51:04.020Z,24.10
2018-05-24T14:52:04.165Z,24.80
2018-05-24T14:53:04.391Z,24.30
2018-05-24T14:54:04.512Z,24.80
2018-05-24T14:55:04.684Z,24.10
2018-05-24T14:56:04.901Z,23.60
2018-05-24T14:57:04.969Z,23.30
2018-05-24T14:58:05.195Z,22.50
2018-05-24T14:59:05.359Z,23.70
2018-05-24T15:00:05.469Z,23.50
2018-05-24T15:01:05.646Z,23.00
2018-05-24T15:02:05.849Z,22.80
2018-05-24T15:03:06.044Z,22.70
2018-05-24T15:04:06.170Z,23.30
2018-05-24T15:05:06.314Z,22.50
2018-05-24T15:06:06.527Z,21.90
2018-05-24T15:07:06.674Z,21.40
2018-05-24T15:08:06.871Z,19.90
2018-05-24T15:09:07.008Z,21.00
2018-05-24T15:10:07.175Z,20.50
2018-05-24T15:11:07.343Z,20.70
2018-05-24T15:12:07.516Z,20.80
2018-05-24T15:13:07.635Z,20.10
2018-05-24T15:14:07.863Z,19.50
2018-05-24T15:15:08.016Z,18.90
2018-05-24T15:16:08.132Z,19.20
2018-05-24T15:17:08.356Z,18.40
2018-05-24T15:18:08.516Z,17.70
2018-05-24T15:19:08.717Z,18.00
2018-05-24T15:20:08.900Z,18.60
2018-05-24T15:21:08.975Z,17.50
2018-05-24T15:22:09.141Z,18.30
2018-05-24T15:23:09.354Z,18.40
2018-05-24T15:24:09.518Z,18.10
2018-05-24T15:25:09.738Z,17.60
2018-05-24T15:26:09.838Z,17.10
2018-05-24T15:27:10.126Z,16.60
2018-05-24T15:28:10.215Z,16.80
2018-05-24T15:29:10.332Z,16.10
2018-05-24T15:30:10.579Z,15.40
2018-05-24T15:31:10.671Z,15.80
2018-05-24T15:32:10.893Z,15.00
2018-05-24T15:33:11.038Z,14.90
2018-05-24T15:34:11.224Z,15.10
2018-05-24T15:35:11.443Z,15.40
2018-05-24T15:36:11.555Z,15.50
2018-05-24T15:37:11.731Z,15.50
2018-05-24T15:38:11.902Z,15.10
2018-05-24T15:39:12.039Z,15.40
2018-05-24T15:40:12.235Z,14.80
2018-05-24T15:41:12.388Z,15.10
2018-05-24T15:42:12.521Z,14.80
2018-05-24T15:43:12.760Z,14.20
2018-05-24T15:44:12.892Z,15.00
2018-05-24T15:45:13.072Z,14.90
2018-05-24T15:46:13.240Z,14.10
2018-05-24T15:47:13.420Z,14.20
2018-05-24T15:48:13.561Z,14.40
2018-05-24T15:49:13.725Z,14.00
2018-05-24T15:50:13.970Z,14.10
2018-05-24T15:51:14.074Z,13.40
2018-05-24T15:52:14.272Z,13.70
2018-05-24T15:53:14.431Z,14.00
2018-05-24T15:54:14.655Z,13.40
2018-05-24T15:55:14.711Z,13.60
2018-05-24T15:56:14.895Z,14.30
2018-05-24T15:57:15.020Z,14.00
2018-05-24T15:58:15.213Z,14.50
2018-05-24T15:59:15.373Z,13.60
2018-05-24T16:00:15.494Z,13.80
2018-05-24T16:01:15.729Z,14.70
2018-05-24T16:02:15.909Z,14.20
2018-05-24T16:03:16.002Z,14.80
2018-05-24T16:04:16.197Z,14.30
2018-05-24T16:05:16.330Z,14.70
2018-05-24T16:06:16.536Z,15.70
2018-05-24T16:07:16.727Z,15.30
2018-05-24T16:08:16.865Z,15.00
2018-05-24T16:09:17.037Z,14.90
2018-05-24T16:10:17.179Z,15.10